Balance de Sombreffe

Balances > Sombreffe > Ce mois-ci

Ce mois-ci

Voir les données pour : cette semaine | hier

Graphiques

  Température (°C)   Température intérieure (°C)   Humidité (%)   Poids (kg)


Journal

23 août 2019 : SIROP
22 août 2019 : SIROP

Tableau

Date Température (°C)Température int. (°C)Humidité (%)Poids (kg)
minmaxmoyminmaxmoyminmaxmoypoidsvariation
21/08/1910,320,616,626,629,127,9527766,127,10,0
22/08/1911,323,418,521,727,324,6547763,830,5+3,4
23/08/1912,425,520,022,632,328,2557663,133,2+2,7
24/08/1913,326,121,030,733,732,0577665,733,0-0,2
25/08/1915,428,322,525,131,027,7507362,532,9-0,1
26/08/1916,229,123,825,332,328,6587464,732,3-0,6
27/08/1918,530,524,928,634,331,5407357,732,0-0,3
28/08/1919,027,823,831,334,032,9507565,832,2+0,2
29/08/1918,322,420,031,332,931,7497564,832,5+0,3
30/08/1911,322,917,629,632,130,6487765,232,3-0,2
31/08/1911,028,220,428,433,831,4537764,135,1+2,8
01/09/1915,720,317,429,932,331,1527567,035,0-0,1
02/09/199,020,015,329,032,430,9477864,434,9-0,1
03/09/1913,018,316,131,733,532,6697774,434,7-0,2
04/09/1913,220,216,731,132,831,9637770,234,70,0
05/09/1911,616,013,525,529,327,5567670,034,6-0,1
06/09/196,218,513,424,226,925,4557967,434,5-0,1
07/09/1913,317,214,726,027,326,5407662,134,50,0
08/09/1910,716,013,424,425,324,8567566,737,8+3,3
09/09/196,616,812,625,129,527,0567870,137,7-0,1
10/09/199,718,815,130,534,032,7547665,137,4-0,3
11/09/1911,418,515,532,034,133,1407566,237,2-0,2
12/09/1917,022,219,331,132,531,777252,037,1-0,1
13/09/1916,919,817,930,231,630,6127349,537,0-0,1
14/09/1911,021,316,427,528,728,0567466,736,8-0,2
15/09/198,822,716,826,427,727,0547766,536,7-0,1
16/09/1912,019,616,125,927,026,4327460,036,6-0,1
17/09/1912,218,215,125,426,325,8427360,136,5-0,1
18/09/195,816,711,823,824,324,0527768,236,4-0,1
19/09/196,816,112,123,824,424,0607367,236,3-0,1